sensor_id;sensor_type;location;lat;lon;timestamp;P1;durP1;ratioP1;P2;durP2;ratioP2
48552;SDS011;34335;51.566;6.994;2022-08-03T00:00:52;4.03;;;2.70;;
48552;SDS011;34335;51.566;6.994;2022-08-03T00:03:18;6.00;;;2.83;;
48552;SDS011;34335;51.566;6.994;2022-08-03T00:05:43;5.13;;;2.50;;
48552;SDS011;34335;51.566;6.994;2022-08-03T00:08:08;4.77;;;2.83;;
48552;SDS011;34335;51.566;6.994;2022-08-03T00:10:34;6.05;;;2.80;;
48552;SDS011;34335;51.566;6.994;2022-08-03T00:12:59;7.40;;;2.97;;
48552;SDS011;34335;51.566;6.994;2022-08-03T00:15:24;4.78;;;2.72;;
48552;SDS011;34335;51.566;6.994;2022-08-03T00:17:50;6.00;;;2.78;;
48552;SDS011;34335;51.566;6.994;2022-08-03T00:20:15;6.23;;;2.63;;
48552;SDS011;34335;51.566;6.994;2022-08-03T00:22:40;5.30;;;2.47;;
48552;SDS011;34335;51.566;6.994;2022-08-03T00:25:06;5.83;;;2.77;;
48552;SDS011;34335;51.566;6.994;2022-08-03T00:27:31;4.65;;;2.45;;
48552;SDS011;34335;51.566;6.994;2022-08-03T00:29:58;5.35;;;2.75;;
48552;SDS011;34335;51.566;6.994;2022-08-03T00:32:23;5.87;;;3.00;;
48552;SDS011;34335;51.566;6.994;2022-08-03T00:34:48;5.90;;;3.33;;
48552;SDS011;34335;51.566;6.994;2022-08-03T00:37:13;4.95;;;2.80;;
48552;SDS011;34335;51.566;6.994;2022-08-03T00:39:39;5.93;;;2.60;;
48552;SDS011;34335;51.566;6.994;2022-08-03T00:42:05;7.60;;;3.13;;
48552;SDS011;34335;51.566;6.994;2022-08-03T00:44:30;6.45;;;2.67;;
48552;SDS011;34335;51.566;6.994;2022-08-03T00:47:02;5.00;;;2.90;;
48552;SDS011;34335;51.566;6.994;2022-08-03T00:49:28;4.05;;;2.72;;
48552;SDS011;34335;51.566;6.994;2022-08-03T00:51:53;5.32;;;2.90;;
48552;SDS011;34335;51.566;6.994;2022-08-03T00:54:19;6.13;;;3.08;;
48552;SDS011;34335;51.566;6.994;2022-08-03T00:56:45;6.07;;;2.75;;
48552;SDS011;34335;51.566;6.994;2022-08-03T00:59:10;5.30;;;3.08;;
48552;SDS011;34335;51.566;6.994;2022-08-03T01:01:36;6.70;;;2.65;;
48552;SDS011;34335;51.566;6.994;2022-08-03T01:04:02;7.20;;;3.42;;
48552;SDS011;34335;51.566;6.994;2022-08-03T01:06:31;4.20;;;2.50;;
48552;SDS011;34335;51.566;6.994;2022-08-03T01:11:37;8.00;;;3.10;;
48552;SDS011;34335;51.566;6.994;2022-08-03T01:14:45;5.05;;;2.58;;
48552;SDS011;34335;51.566;6.994;2022-08-03T01:19:55;6.97;;;3.50;;
48552;SDS011;34335;51.566;6.994;2022-08-03T01:31:09;7.25;;;2.83;;
48552;SDS011;34335;51.566;6.994;2022-08-03T01:33:40;5.57;;;2.83;;
48552;SDS011;34335;51.566;6.994;2022-08-03T01:36:08;6.53;;;2.80;;
48552;SDS011;34335;51.566;6.994;2022-08-03T01:38:40;4.47;;;2.50;;
48552;SDS011;34335;51.566;6.994;2022-08-03T01:41:10;10.13;;;3.22;;
48552;SDS011;34335;51.566;6.994;2022-08-03T01:43:37;6.45;;;2.92;;
48552;SDS011;34335;51.566;6.994;2022-08-03T01:46:06;7.15;;;3.00;;
48552;SDS011;34335;51.566;6.994;2022-08-03T01:48:34;8.27;;;3.20;;
48552;SDS011;34335;51.566;6.994;2022-08-03T01:51:01;9.90;;;2.55;;
48552;SDS011;34335;51.566;6.994;2022-08-03T01:53:27;5.35;;;3.42;;
48552;SDS011;34335;51.566;6.994;2022-08-03T01:55:56;5.70;;;2.72;;
48552;SDS011;34335;51.566;6.994;2022-08-03T01:58:23;7.43;;;3.00;;
48552;SDS011;34335;51.566;6.994;2022-08-03T02:00:51;5.18;;;2.92;;
48552;SDS011;34335;51.566;6.994;2022-08-03T02:03:21;5.13;;;2.65;;
48552;SDS011;34335;51.566;6.994;2022-08-03T02:05:48;5.68;;;3.13;;
48552;SDS011;34335;51.566;6.994;2022-08-03T02:08:16;6.13;;;2.78;;
48552;SDS011;34335;51.566;6.994;2022-08-03T02:10:42;5.43;;;2.80;;
48552;SDS011;34335;51.566;6.994;2022-08-03T02:13:10;7.78;;;3.00;;
48552;SDS011;34335;51.566;6.994;2022-08-03T02:15:37;5.70;;;2.80;;
48552;SDS011;34335;51.566;6.994;2022-08-03T02:18:04;7.45;;;2.83;;
48552;SDS011;34335;51.566;6.994;2022-08-03T02:20:32;4.30;;;2.75;;
48552;SDS011;34335;51.566;6.994;2022-08-03T02:23:00;7.43;;;2.78;;
48552;SDS011;34335;51.566;6.994;2022-08-03T02:25:26;6.13;;;2.50;;
48552;SDS011;34335;51.566;6.994;2022-08-03T02:27:56;4.88;;;2.90;;
48552;SDS011;34335;51.566;6.994;2022-08-03T02:30:26;9.17;;;3.37;;
48552;SDS011;34335;51.566;6.994;2022-08-03T02:32:57;6.57;;;3.30;;
48552;SDS011;34335;51.566;6.994;2022-08-03T02:35:25;8.60;;;2.72;;
48552;SDS011;34335;51.566;6.994;2022-08-03T02:37:54;4.57;;;2.50;;
48552;SDS011;34335;51.566;6.994;2022-08-03T02:40:22;5.68;;;3.13;;
48552;SDS011;34335;51.566;6.994;2022-08-03T02:42:49;4.82;;;2.58;;
48552;SDS011;34335;51.566;6.994;2022-08-03T02:45:20;8.00;;;2.75;;
48552;SDS011;34335;51.566;6.994;2022-08-03T02:47:48;7.75;;;3.10;;
48552;SDS011;34335;51.566;6.994;2022-08-03T02:50:15;7.00;;;3.05;;
48552;SDS011;34335;51.566;6.994;2022-08-03T02:52:43;7.20;;;3.40;;
48552;SDS011;34335;51.566;6.994;2022-08-03T02:55:11;6.47;;;2.63;;
48552;SDS011;34335;51.566;6.994;2022-08-03T02:57:39;5.95;;;3.10;;
48552;SDS011;34335;51.566;6.994;2022-08-03T03:00:05;6.78;;;3.35;;
48552;SDS011;34335;51.566;6.994;2022-08-03T03:02:32;6.43;;;2.92;;
48552;SDS011;34335;51.566;6.994;2022-08-03T03:04:58;6.53;;;3.13;;
48552;SDS011;34335;51.566;6.994;2022-08-03T03:07:25;6.53;;;2.90;;
48552;SDS011;34335;51.566;6.994;2022-08-03T03:09:51;10.63;;;3.72;;
48552;SDS011;34335;51.566;6.994;2022-08-03T03:12:17;9.10;;;3.47;;
48552;SDS011;34335;51.566;6.994;2022-08-03T03:14:44;7.15;;;3.45;;
48552;SDS011;34335;51.566;6.994;2022-08-03T03:17:10;6.13;;;2.80;;
48552;SDS011;34335;51.566;6.994;2022-08-03T03:19:38;5.88;;;3.78;;
48552;SDS011;34335;51.566;6.994;2022-08-03T03:22:06;6.85;;;3.08;;
48552;SDS011;34335;51.566;6.994;2022-08-03T03:24:32;7.20;;;3.30;;
48552;SDS011;34335;51.566;6.994;2022-08-03T03:27:00;7.25;;;3.00;;
48552;SDS011;34335;51.566;6.994;2022-08-03T03:29:26;6.95;;;3.70;;
48552;SDS011;34335;51.566;6.994;2022-08-03T03:31:52;7.40;;;3.40;;
48552;SDS011;34335;51.566;6.994;2022-08-03T03:34:17;6.63;;;2.90;;
48552;SDS011;34335;51.566;6.994;2022-08-03T03:36:43;9.43;;;3.33;;
48552;SDS011;34335;51.566;6.994;2022-08-03T03:39:09;10.23;;;3.40;;
48552;SDS011;34335;51.566;6.994;2022-08-03T03:41:34;9.70;;;3.33;;
48552;SDS011;34335;51.566;6.994;2022-08-03T03:44:00;8.27;;;3.35;;
48552;SDS011;34335;51.566;6.994;2022-08-03T03:46:25;9.13;;;3.20;;
48552;SDS011;34335;51.566;6.994;2022-08-03T03:48:51;13.88;;;3.92;;
48552;SDS011;34335;51.566;6.994;2022-08-03T03:51:16;5.77;;;3.03;;
48552;SDS011;34335;51.566;6.994;2022-08-03T03:54:01;8.10;;;2.97;;
48552;SDS011;34335;51.566;6.994;2022-08-03T03:56:30;5.82;;;3.00;;
48552;SDS011;34335;51.566;6.994;2022-08-03T03:58:56;8.93;;;3.25;;
48552;SDS011;34335;51.566;6.994;2022-08-03T04:01:21;7.83;;;3.50;;
48552;SDS011;34335;51.566;6.994;2022-08-03T04:03:46;7.65;;;4.03;;
48552;SDS011;34335;51.566;6.994;2022-08-03T04:06:12;7.00;;;2.97;;
48552;SDS011;34335;51.566;6.994;2022-08-03T04:08:56;7.28;;;3.70;;
48552;SDS011;34335;51.566;6.994;2022-08-03T04:11:42;7.53;;;3.38;;
48552;SDS011;34335;51.566;6.994;2022-08-03T04:14:24;6.82;;;3.20;;
48552;SDS011;34335;51.566;6.994;2022-08-03T04:16:54;6.88;;;3.47;;
48552;SDS011;34335;51.566;6.994;2022-08-03T04:22:08;9.27;;;3.70;;
48552;SDS011;34335;51.566;6.994;2022-08-03T04:24:43;9.20;;;3.80;;
48552;SDS011;34335;51.566;6.994;2022-08-03T04:27:13;10.60;;;5.20;;
48552;SDS011;34335;51.566;6.994;2022-08-03T04:29:41;7.90;;;3.78;;
48552;SDS011;34335;51.566;6.994;2022-08-03T04:32:10;8.65;;;3.78;;
48552;SDS011;34335;51.566;6.994;2022-08-03T04:34:37;9.38;;;3.45;;
48552;SDS011;34335;51.566;6.994;2022-08-03T04:37:04;8.10;;;3.40;;
48552;SDS011;34335;51.566;6.994;2022-08-03T04:39:36;5.85;;;3.13;;
48552;SDS011;34335;51.566;6.994;2022-08-03T04:42:06;6.85;;;3.60;;
48552;SDS011;34335;51.566;6.994;2022-08-03T04:44:36;8.95;;;3.53;;
48552;SDS011;34335;51.566;6.994;2022-08-03T04:47:04;8.45;;;3.65;;
48552;SDS011;34335;51.566;6.994;2022-08-03T04:49:30;6.70;;;4.03;;
48552;SDS011;34335;51.566;6.994;2022-08-03T04:51:56;8.85;;;3.85;;
48552;SDS011;34335;51.566;6.994;2022-08-03T04:54:22;67.53;;;7.72;;
48552;SDS011;34335;51.566;6.994;2022-08-03T04:56:47;15.45;;;4.00;;
48552;SDS011;34335;51.566;6.994;2022-08-03T04:59:13;26.02;;;5.22;;
48552;SDS011;34335;51.566;6.994;2022-08-03T05:01:39;12.07;;;4.00;;
48552;SDS011;34335;51.566;6.994;2022-08-03T05:04:05;12.50;;;4.55;;
48552;SDS011;34335;51.566;6.994;2022-08-03T05:06:30;5.63;;;3.28;;
48552;SDS011;34335;51.566;6.994;2022-08-03T05:08:55;8.70;;;3.03;;
48552;SDS011;34335;51.566;6.994;2022-08-03T05:11:21;10.05;;;3.55;;
48552;SDS011;34335;51.566;6.994;2022-08-03T05:13:46;11.57;;;4.30;;
48552;SDS011;34335;51.566;6.994;2022-08-03T05:16:12;6.07;;;3.42;;
48552;SDS011;34335;51.566;6.994;2022-08-03T05:18:39;8.85;;;4.55;;
48552;SDS011;34335;51.566;6.994;2022-08-03T05:21:05;13.45;;;4.32;;
48552;SDS011;34335;51.566;6.994;2022-08-03T05:23:30;9.17;;;3.73;;
48552;SDS011;34335;51.566;6.994;2022-08-03T05:25:55;7.85;;;3.63;;
48552;SDS011;34335;51.566;6.994;2022-08-03T05:28:21;10.57;;;4.30;;
48552;SDS011;34335;51.566;6.994;2022-08-03T05:30:46;8.40;;;3.80;;
48552;SDS011;34335;51.566;6.994;2022-08-03T05:33:12;14.90;;;4.75;;
48552;SDS011;34335;51.566;6.994;2022-08-03T05:35:37;6.13;;;3.50;;
48552;SDS011;34335;51.566;6.994;2022-08-03T05:38:03;7.18;;;3.53;;
48552;SDS011;34335;51.566;6.994;2022-08-03T05:40:30;6.82;;;3.63;;
48552;SDS011;34335;51.566;6.994;2022-08-03T05:42:56;6.63;;;3.75;;
48552;SDS011;34335;51.566;6.994;2022-08-03T05:45:22;7.78;;;3.53;;
48552;SDS011;34335;51.566;6.994;2022-08-03T05:47:48;10.13;;;3.35;;
48552;SDS011;34335;51.566;6.994;2022-08-03T05:50:15;8.10;;;2.95;;
48552;SDS011;34335;51.566;6.994;2022-08-03T05:52:41;11.25;;;3.75;;
48552;SDS011;34335;51.566;6.994;2022-08-03T05:55:08;7.10;;;2.85;;
48552;SDS011;34335;51.566;6.994;2022-08-03T05:57:34;7.10;;;3.30;;
48552;SDS011;34335;51.566;6.994;2022-08-03T06:00:00;11.25;;;3.60;;
48552;SDS011;34335;51.566;6.994;2022-08-03T06:02:27;6.20;;;2.83;;
48552;SDS011;34335;51.566;6.994;2022-08-03T06:04:53;10.35;;;3.65;;
48552;SDS011;34335;51.566;6.994;2022-08-03T06:07:19;6.35;;;3.40;;
48552;SDS011;34335;51.566;6.994;2022-08-03T06:09:44;9.80;;;3.40;;
48552;SDS011;34335;51.566;6.994;2022-08-03T06:12:09;5.10;;;3.00;;
48552;SDS011;34335;51.566;6.994;2022-08-03T06:14:35;7.03;;;3.23;;
48552;SDS011;34335;51.566;6.994;2022-08-03T06:17:00;8.07;;;3.03;;
48552;SDS011;34335;51.566;6.994;2022-08-03T06:19:25;6.20;;;3.00;;
48552;SDS011;34335;51.566;6.994;2022-08-03T06:21:51;6.80;;;2.72;;
48552;SDS011;34335;51.566;6.994;2022-08-03T06:24:17;4.88;;;2.83;;
48552;SDS011;34335;51.566;6.994;2022-08-03T06:26:42;6.40;;;2.80;;
48552;SDS011;34335;51.566;6.994;2022-08-03T06:29:07;7.13;;;2.93;;
48552;SDS011;34335;51.566;6.994;2022-08-03T06:31:33;5.13;;;2.60;;
48552;SDS011;34335;51.566;6.994;2022-08-03T06:33:58;8.43;;;3.07;;
48552;SDS011;34335;51.566;6.994;2022-08-03T06:36:24;5.97;;;2.90;;
48552;SDS011;34335;51.566;6.994;2022-08-03T06:38:55;7.45;;;2.70;;
48552;SDS011;34335;51.566;6.994;2022-08-03T06:41:21;6.20;;;2.60;;
48552;SDS011;34335;51.566;6.994;2022-08-03T06:43:46;6.43;;;2.60;;
48552;SDS011;34335;51.566;6.994;2022-08-03T06:46:11;7.63;;;2.63;;
48552;SDS011;34335;51.566;6.994;2022-08-03T06:48:37;10.07;;;2.67;;
48552;SDS011;34335;51.566;6.994;2022-08-03T06:51:02;7.77;;;2.93;;
48552;SDS011;34335;51.566;6.994;2022-08-03T06:53:27;6.63;;;2.20;;
48552;SDS011;34335;51.566;6.994;2022-08-03T06:55:52;8.53;;;3.10;;
48552;SDS011;34335;51.566;6.994;2022-08-03T06:58:18;4.80;;;2.30;;
48552;SDS011;34335;51.566;6.994;2022-08-03T07:00:43;4.65;;;2.05;;
48552;SDS011;34335;51.566;6.994;2022-08-03T07:03:08;6.47;;;2.80;;
48552;SDS011;34335;51.566;6.994;2022-08-03T07:05:34;4.70;;;2.13;;
48552;SDS011;34335;51.566;6.994;2022-08-03T07:07:59;6.87;;;2.80;;
48552;SDS011;34335;51.566;6.994;2022-08-03T07:10:26;7.30;;;2.20;;
48552;SDS011;34335;51.566;6.994;2022-08-03T07:12:51;7.43;;;2.45;;
48552;SDS011;34335;51.566;6.994;2022-08-03T07:15:17;15.82;;;2.70;;
48552;SDS011;34335;51.566;6.994;2022-08-03T07:17:42;6.78;;;2.40;;
48552;SDS011;34335;51.566;6.994;2022-08-03T07:20:07;7.80;;;2.53;;
48552;SDS011;34335;51.566;6.994;2022-08-03T07:22:34;6.32;;;2.30;;
48552;SDS011;34335;51.566;6.994;2022-08-03T07:24:59;7.15;;;2.25;;
48552;SDS011;34335;51.566;6.994;2022-08-03T07:27:25;6.03;;;2.30;;
48552;SDS011;34335;51.566;6.994;2022-08-03T07:29:52;6.90;;;2.30;;
48552;SDS011;34335;51.566;6.994;2022-08-03T07:32:17;6.90;;;1.90;;
48552;SDS011;34335;51.566;6.994;2022-08-03T07:34:43;3.77;;;1.90;;
48552;SDS011;34335;51.566;6.994;2022-08-03T07:37:08;6.00;;;2.35;;
48552;SDS011;34335;51.566;6.994;2022-08-03T07:39:33;4.60;;;1.70;;
48552;SDS011;34335;51.566;6.994;2022-08-03T07:41:59;7.35;;;2.70;;
48552;SDS011;34335;51.566;6.994;2022-08-03T07:44:24;7.30;;;1.80;;
48552;SDS011;34335;51.566;6.994;2022-08-03T07:46:49;8.83;;;2.03;;
48552;SDS011;34335;51.566;6.994;2022-08-03T07:49:14;4.20;;;1.97;;
48552;SDS011;34335;51.566;6.994;2022-08-03T07:51:40;4.40;;;1.52;;
48552;SDS011;34335;51.566;6.994;2022-08-03T07:54:05;6.43;;;2.20;;
48552;SDS011;34335;51.566;6.994;2022-08-03T07:56:31;8.90;;;2.00;;
48552;SDS011;34335;51.566;6.994;2022-08-03T07:58:57;5.50;;;1.77;;
48552;SDS011;34335;51.566;6.994;2022-08-03T08:01:23;5.15;;;1.77;;
48552;SDS011;34335;51.566;6.994;2022-08-03T08:03:49;8.52;;;2.50;;
48552;SDS011;34335;51.566;6.994;2022-08-03T08:06:15;5.00;;;1.88;;
48552;SDS011;34335;51.566;6.994;2022-08-03T08:08:42;7.70;;;2.33;;
48552;SDS011;34335;51.566;6.994;2022-08-03T08:11:07;6.45;;;2.40;;
48552;SDS011;34335;51.566;6.994;2022-08-03T08:13:33;6.47;;;2.13;;
48552;SDS011;34335;51.566;6.994;2022-08-03T08:15:58;6.25;;;2.53;;
48552;SDS011;34335;51.566;6.994;2022-08-03T08:18:24;4.95;;;1.90;;
48552;SDS011;34335;51.566;6.994;2022-08-03T08:20:50;7.53;;;2.30;;
48552;SDS011;34335;51.566;6.994;2022-08-03T08:23:16;5.82;;;1.98;;
48552;SDS011;34335;51.566;6.994;2022-08-03T08:25:47;5.93;;;2.00;;
48552;SDS011;34335;51.566;6.994;2022-08-03T08:28:13;5.20;;;2.03;;
48552;SDS011;34335;51.566;6.994;2022-08-03T08:30:39;7.57;;;2.10;;
48552;SDS011;34335;51.566;6.994;2022-08-03T08:33:04;6.30;;;1.85;;
48552;SDS011;34335;51.566;6.994;2022-08-03T08:35:29;7.93;;;2.03;;
48552;SDS011;34335;51.566;6.994;2022-08-03T08:37:54;9.73;;;2.87;;
48552;SDS011;34335;51.566;6.994;2022-08-03T08:40:20;5.10;;;2.13;;
48552;SDS011;34335;51.566;6.994;2022-08-03T08:42:46;3.63;;;1.90;;
48552;SDS011;34335;51.566;6.994;2022-08-03T08:45:12;11.00;;;2.28;;
48552;SDS011;34335;51.566;6.994;2022-08-03T08:47:39;6.13;;;2.33;;
48552;SDS011;34335;51.566;6.994;2022-08-03T08:50:08;5.43;;;2.22;;
48552;SDS011;34335;51.566;6.994;2022-08-03T08:52:35;7.68;;;2.22;;
48552;SDS011;34335;51.566;6.994;2022-08-03T08:55:05;4.70;;;1.75;;
48552;SDS011;34335;51.566;6.994;2022-08-03T08:57:33;3.55;;;1.85;;
48552;SDS011;34335;51.566;6.994;2022-08-03T09:00:03;6.05;;;1.80;;
48552;SDS011;34335;51.566;6.994;2022-08-03T09:02:38;5.43;;;2.13;;
48552;SDS011;34335;51.566;6.994;2022-08-03T09:05:06;5.85;;;1.42;;
48552;SDS011;34335;51.566;6.994;2022-08-03T09:07:35;5.63;;;1.73;;
48552;SDS011;34335;51.566;6.994;2022-08-03T09:10:01;2.80;;;1.45;;
48552;SDS011;34335;51.566;6.994;2022-08-03T09:12:26;5.97;;;1.87;;
48552;SDS011;34335;51.566;6.994;2022-08-03T09:14:53;6.28;;;1.73;;
48552;SDS011;34335;51.566;6.994;2022-08-03T09:17:19;5.63;;;2.10;;
48552;SDS011;34335;51.566;6.994;2022-08-03T09:20:03;5.38;;;1.60;;
48552;SDS011;34335;51.566;6.994;2022-08-03T09:22:30;4.55;;;1.73;;
48552;SDS011;34335;51.566;6.994;2022-08-03T09:25:04;4.90;;;1.90;;
48552;SDS011;34335;51.566;6.994;2022-08-03T09:27:41;5.50;;;1.92;;
48552;SDS011;34335;51.566;6.994;2022-08-03T09:30:14;7.25;;;2.05;;
48552;SDS011;34335;51.566;6.994;2022-08-03T09:32:42;13.45;;;2.75;;
48552;SDS011;34335;51.566;6.994;2022-08-03T09:35:09;13.65;;;2.67;;
48552;SDS011;34335;51.566;6.994;2022-08-03T09:37:35;8.68;;;2.22;;
48552;SDS011;34335;51.566;6.994;2022-08-03T09:40:02;5.38;;;2.38;;
48552;SDS011;34335;51.566;6.994;2022-08-03T09:42:28;7.45;;;2.30;;
48552;SDS011;34335;51.566;6.994;2022-08-03T09:44:53;5.90;;;2.28;;
48552;SDS011;34335;51.566;6.994;2022-08-03T09:47:29;4.82;;;2.10;;
48552;SDS011;34335;51.566;6.994;2022-08-03T09:50:03;5.85;;;2.10;;
48552;SDS011;34335;51.566;6.994;2022-08-03T09:54:59;6.00;;;2.15;;
48552;SDS011;34335;51.566;6.994;2022-08-03T09:57:26;8.30;;;2.00;;
48552;SDS011;34335;51.566;6.994;2022-08-03T09:59:54;5.15;;;1.60;;
48552;SDS011;34335;51.566;6.994;2022-08-03T10:02:31;6.70;;;1.73;;
48552;SDS011;34335;51.566;6.994;2022-08-03T10:04:56;4.78;;;1.52;;
48552;SDS011;34335;51.566;6.994;2022-08-03T10:07:22;9.80;;;2.33;;
48552;SDS011;34335;51.566;6.994;2022-08-03T10:12:26;5.93;;;2.20;;
48552;SDS011;34335;51.566;6.994;2022-08-03T10:14:53;6.90;;;1.63;;
48552;SDS011;34335;51.566;6.994;2022-08-03T10:17:19;10.13;;;2.17;;
48552;SDS011;34335;51.566;6.994;2022-08-03T10:19:47;4.40;;;1.77;;
48552;SDS011;34335;51.566;6.994;2022-08-03T10:22:14;5.57;;;1.63;;
48552;SDS011;34335;51.566;6.994;2022-08-03T10:24:44;10.10;;;1.90;;
48552;SDS011;34335;51.566;6.994;2022-08-03T10:27:18;7.38;;;2.00;;
48552;SDS011;34335;51.566;6.994;2022-08-03T10:29:46;11.63;;;1.98;;
48552;SDS011;34335;51.566;6.994;2022-08-03T10:32:30;9.15;;;1.60;;
48552;SDS011;34335;51.566;6.994;2022-08-03T10:35:02;5.53;;;1.55;;
48552;SDS011;34335;51.566;6.994;2022-08-03T10:37:31;3.38;;;1.55;;
48552;SDS011;34335;51.566;6.994;2022-08-03T10:39:59;5.40;;;1.85;;
48552;SDS011;34335;51.566;6.994;2022-08-03T10:42:25;7.57;;;1.77;;
48552;SDS011;34335;51.566;6.994;2022-08-03T10:44:54;5.97;;;1.10;;
48552;SDS011;34335;51.566;6.994;2022-08-03T10:47:27;5.97;;;1.02;;
48552;SDS011;34335;51.566;6.994;2022-08-03T10:49:53;3.15;;;1.27;;
48552;SDS011;34335;51.566;6.994;2022-08-03T10:52:19;4.88;;;1.27;;
48552;SDS011;34335;51.566;6.994;2022-08-03T10:54:45;2.83;;;1.25;;
48552;SDS011;34335;51.566;6.994;2022-08-03T10:57:48;4.22;;;1.00;;
48552;SDS011;34335;51.566;6.994;2022-08-03T11:00:21;7.00;;;1.50;;
48552;SDS011;34335;51.566;6.994;2022-08-03T11:03:04;3.33;;;1.17;;
48552;SDS011;34335;51.566;6.994;2022-08-03T11:05:34;3.47;;;1.23;;
48552;SDS011;34335;51.566;6.994;2022-08-03T11:10:46;5.10;;;1.42;;
48552;SDS011;34335;51.566;6.994;2022-08-03T11:13:18;7.43;;;1.38;;
48552;SDS011;34335;51.566;6.994;2022-08-03T11:15:45;4.35;;;1.02;;
48552;SDS011;34335;51.566;6.994;2022-08-03T11:18:13;2.80;;;1.10;;
48552;SDS011;34335;51.566;6.994;2022-08-03T11:20:43;3.90;;;1.15;;
48552;SDS011;34335;51.566;6.994;2022-08-03T11:23:10;2.15;;;0.90;;
48552;SDS011;34335;51.566;6.994;2022-08-03T11:28:38;9.50;;;1.58;;
48552;SDS011;34335;51.566;6.994;2022-08-03T11:36:28;3.40;;;1.05;;
48552;SDS011;34335;51.566;6.994;2022-08-03T11:39:11;4.90;;;1.27;;
48552;SDS011;34335;51.566;6.994;2022-08-03T11:41:37;2.50;;;0.82;;
48552;SDS011;34335;51.566;6.994;2022-08-03T11:44:02;4.27;;;1.30;;
48552;SDS011;34335;51.566;6.994;2022-08-03T11:46:28;4.38;;;1.15;;
48552;SDS011;34335;51.566;6.994;2022-08-03T11:49:05;3.60;;;0.98;;
48552;SDS011;34335;51.566;6.994;2022-08-03T11:51:31;5.53;;;1.33;;
48552;SDS011;34335;51.566;6.994;2022-08-03T11:54:00;3.13;;;0.85;;
48552;SDS011;34335;51.566;6.994;2022-08-03T11:56:28;4.00;;;1.35;;
48552;SDS011;34335;51.566;6.994;2022-08-03T11:59:08;6.82;;;1.25;;
48552;SDS011;34335;51.566;6.994;2022-08-03T12:01:34;6.37;;;1.23;;
48552;SDS011;34335;51.566;6.994;2022-08-03T12:04:02;4.70;;;1.27;;
48552;SDS011;34335;51.566;6.994;2022-08-03T12:06:28;5.10;;;1.30;;
48552;SDS011;34335;51.566;6.994;2022-08-03T12:08:54;3.50;;;1.00;;
48552;SDS011;34335;51.566;6.994;2022-08-03T12:11:19;5.43;;;1.17;;
48552;SDS011;34335;51.566;6.994;2022-08-03T12:13:45;4.57;;;1.00;;
48552;SDS011;34335;51.566;6.994;2022-08-03T12:16:18;6.28;;;1.20;;
48552;SDS011;34335;51.566;6.994;2022-08-03T12:18:53;3.80;;;1.08;;
48552;SDS011;34335;51.566;6.994;2022-08-03T12:21:26;3.20;;;0.95;;
48552;SDS011;34335;51.566;6.994;2022-08-03T12:23:56;11.90;;;1.83;;
48552;SDS011;34335;51.566;6.994;2022-08-03T12:26:27;6.40;;;1.20;;
48552;SDS011;34335;51.566;6.994;2022-08-03T12:28:54;12.90;;;2.17;;
48552;SDS011;34335;51.566;6.994;2022-08-03T12:31:19;6.57;;;1.20;;
48552;SDS011;34335;51.566;6.994;2022-08-03T12:34:01;4.00;;;1.40;;
48552;SDS011;34335;51.566;6.994;2022-08-03T12:36:29;6.75;;;1.27;;
48552;SDS011;34335;51.566;6.994;2022-08-03T12:38:58;8.50;;;1.30;;
48552;SDS011;34335;51.566;6.994;2022-08-03T12:41:30;6.05;;;1.25;;
48552;SDS011;34335;51.566;6.994;2022-08-03T12:44:01;27.92;;;3.95;;
48552;SDS011;34335;51.566;6.994;2022-08-03T12:49:04;4.43;;;1.30;;
48552;SDS011;34335;51.566;6.994;2022-08-03T12:51:32;7.38;;;1.55;;
48552;SDS011;34335;51.566;6.994;2022-08-03T12:54:00;30.23;;;2.45;;
48552;SDS011;34335;51.566;6.994;2022-08-03T12:56:26;7.10;;;1.48;;
48552;SDS011;34335;51.566;6.994;2022-08-03T12:58:51;5.40;;;1.15;;
48552;SDS011;34335;51.566;6.994;2022-08-03T13:01:17;7.85;;;1.00;;
48552;SDS011;34335;51.566;6.994;2022-08-03T13:03:46;33.08;;;7.85;;
48552;SDS011;34335;51.566;6.994;2022-08-03T13:06:13;4.32;;;1.20;;
48552;SDS011;34335;51.566;6.994;2022-08-03T13:08:40;8.95;;;1.42;;
48552;SDS011;34335;51.566;6.994;2022-08-03T13:13:48;3.58;;;1.27;;
48552;SDS011;34335;51.566;6.994;2022-08-03T13:16:14;7.68;;;1.02;;
48552;SDS011;34335;51.566;6.994;2022-08-03T13:18:39;5.05;;;1.20;;
48552;SDS011;34335;51.566;6.994;2022-08-03T13:21:05;6.40;;;0.90;;
48552;SDS011;34335;51.566;6.994;2022-08-03T13:23:30;3.57;;;0.93;;
48552;SDS011;34335;51.566;6.994;2022-08-03T13:25:55;5.10;;;1.13;;
48552;SDS011;34335;51.566;6.994;2022-08-03T13:28:21;7.23;;;1.10;;
48552;SDS011;34335;51.566;6.994;2022-08-03T13:30:46;3.10;;;1.13;;
48552;SDS011;34335;51.566;6.994;2022-08-03T13:33:11;2.42;;;0.68;;
48552;SDS011;34335;51.566;6.994;2022-08-03T13:35:37;4.43;;;0.77;;
48552;SDS011;34335;51.566;6.994;2022-08-03T13:38:02;3.43;;;1.20;;
48552;SDS011;34335;51.566;6.994;2022-08-03T13:40:27;3.93;;;1.00;;
48552;SDS011;34335;51.566;6.994;2022-08-03T13:42:55;4.80;;;0.90;;
48552;SDS011;34335;51.566;6.994;2022-08-03T13:45:20;4.77;;;1.27;;
48552;SDS011;34335;51.566;6.994;2022-08-03T13:47:45;3.60;;;0.90;;
48552;SDS011;34335;51.566;6.994;2022-08-03T13:50:11;4.27;;;1.03;;
48552;SDS011;34335;51.566;6.994;2022-08-03T13:52:36;4.17;;;1.47;;
48552;SDS011;34335;51.566;6.994;2022-08-03T13:55:03;6.13;;;1.17;;
48552;SDS011;34335;51.566;6.994;2022-08-03T13:57:30;2.85;;;0.90;;
48552;SDS011;34335;51.566;6.994;2022-08-03T13:59:55;2.88;;;0.90;;
48552;SDS011;34335;51.566;6.994;2022-08-03T14:02:20;4.40;;;0.97;;
48552;SDS011;34335;51.566;6.994;2022-08-03T14:04:46;5.20;;;1.00;;
48552;SDS011;34335;51.566;6.994;2022-08-03T14:07:11;4.90;;;1.10;;
48552;SDS011;34335;51.566;6.994;2022-08-03T14:09:38;4.30;;;1.08;;
48552;SDS011;34335;51.566;6.994;2022-08-03T14:12:04;3.13;;;1.00;;
48552;SDS011;34335;51.566;6.994;2022-08-03T14:14:29;7.50;;;1.77;;
48552;SDS011;34335;51.566;6.994;2022-08-03T14:16:55;9.30;;;1.00;;
48552;SDS011;34335;51.566;6.994;2022-08-03T14:19:20;2.97;;;1.00;;
48552;SDS011;34335;51.566;6.994;2022-08-03T14:21:46;2.13;;;0.77;;
48552;SDS011;34335;51.566;6.994;2022-08-03T14:24:11;2.67;;;0.90;;
48552;SDS011;34335;51.566;6.994;2022-08-03T14:26:36;3.65;;;1.00;;
48552;SDS011;34335;51.566;6.994;2022-08-03T14:29:02;2.53;;;0.85;;
48552;SDS011;34335;51.566;6.994;2022-08-03T14:31:28;2.45;;;1.10;;
48552;SDS011;34335;51.566;6.994;2022-08-03T14:33:54;3.15;;;1.20;;
48552;SDS011;34335;51.566;6.994;2022-08-03T14:36:19;4.57;;;1.40;;
48552;SDS011;34335;51.566;6.994;2022-08-03T14:38:44;5.50;;;1.03;;
48552;SDS011;34335;51.566;6.994;2022-08-03T14:41:10;3.47;;;0.88;;
48552;SDS011;34335;51.566;6.994;2022-08-03T14:43:35;4.47;;;0.90;;
48552;SDS011;34335;51.566;6.994;2022-08-03T14:46:00;3.10;;;1.00;;
48552;SDS011;34335;51.566;6.994;2022-08-03T14:48:26;4.67;;;1.20;;
48552;SDS011;34335;51.566;6.994;2022-08-03T14:50:51;3.50;;;0.88;;
48552;SDS011;34335;51.566;6.994;2022-08-03T14:53:19;4.00;;;0.90;;
48552;SDS011;34335;51.566;6.994;2022-08-03T14:55:45;2.45;;;1.00;;
48552;SDS011;34335;51.566;6.994;2022-08-03T14:58:13;5.68;;;0.82;;
48552;SDS011;34335;51.566;6.994;2022-08-03T15:00:39;3.72;;;0.60;;
48552;SDS011;34335;51.566;6.994;2022-08-03T15:03:04;3.57;;;0.70;;
48552;SDS011;34335;51.566;6.994;2022-08-03T15:05:29;4.70;;;0.90;;
48552;SDS011;34335;51.566;6.994;2022-08-03T15:07:55;3.58;;;0.88;;
48552;SDS011;34335;51.566;6.994;2022-08-03T15:10:20;3.15;;;0.70;;
48552;SDS011;34335;51.566;6.994;2022-08-03T15:12:46;2.95;;;1.08;;
48552;SDS011;34335;51.566;6.994;2022-08-03T15:15:11;2.27;;;0.87;;
48552;SDS011;34335;51.566;6.994;2022-08-03T15:17:37;4.88;;;0.70;;
48552;SDS011;34335;51.566;6.994;2022-08-03T15:20:03;3.70;;;0.77;;
48552;SDS011;34335;51.566;6.994;2022-08-03T15:22:29;2.60;;;0.75;;
48552;SDS011;34335;51.566;6.994;2022-08-03T15:24:54;2.03;;;0.80;;